Time;durP1;ratioP1;P1;durP2;ratioP2;P2;SDS_P1;SDS_P2;PMS_P1;PMS_P2;Temp;Humidity;BMP_temperature;BMP_pressure;BME280_temperature;BME280_humidity;BME280_pressure;Samples;Min_cycle;Max_cycle;Signal;HPM_P1;HPM_P2
2024/04/08 00:02:00;;;;;;;5.42;4.03;;;;;;;;;;1935619;74;21031;-48
2024/04/08 00:04:29;;;;;;;5.90;4.72;;;;;;;;;;1935653;74;21101;-48
2024/04/08 00:06:57;;;;;;;10.23;5.05;;;;;;;;;;1935668;74;20991;-48
2024/04/08 00:09:26;;;;;;;7.17;4.87;;;;;;;;;;1935662;74;21075;-47
2024/04/08 00:11:54;;;;;;;7.97;5.30;;;;;;;;;;1935748;74;21145;-48
2024/04/08 00:14:23;;;;;;;11.40;5.60;;;;;;;;;;1935671;74;21027;-48
2024/04/08 00:16:52;;;;;;;10.13;5.05;;;;;;;;;;1935562;74;21031;-48
2024/04/08 00:19:20;;;;;;;17.62;8.00;;;;;;;;;;1935675;74;21019;-48
2024/04/08 00:21:49;;;;;;;13.78;6.03;;;;;;;;;;1935625;74;21093;-48
2024/04/08 00:24:17;;;;;;;11.20;6.42;;;;;;;;;;1935821;74;21015;-48
2024/04/08 00:26:46;;;;;;;8.98;5.30;;;;;;;;;;1935881;74;21063;-48
2024/04/08 00:29:14;;;;;;;11.93;5.08;;;;;;;;;;1935929;74;21077;-50
2024/04/08 00:31:43;;;;;;;9.08;5.05;;;;;;;;;;1935896;74;21097;-48
2024/04/08 00:34:11;;;;;;;8.98;5.67;;;;;;;;;;1938069;74;21121;-49
2024/04/08 00:36:41;;;;;;;9.75;5.67;;;;;;;;;;1948881;74;21027;-49
2024/04/08 00:39:10;;;;;;;11.68;5.97;;;;;;;;;;1948912;74;21023;-49
2024/04/08 00:41:39;;;;;;;12.30;5.58;;;;;;;;;;1948946;74;21030;-49
2024/04/08 00:44:07;;;;;;;10.82;6.47;;;;;;;;;;1948777;74;21027;-48
2024/04/08 00:46:36;;;;;;;12.60;5.87;;;;;;;;;;1948990;74;21026;-49
2024/04/08 00:49:05;;;;;;;9.63;4.97;;;;;;;;;;1948820;74;21080;-50
2024/04/08 00:51:33;;;;;;;11.60;5.22;;;;;;;;;;1948917;74;21023;-51
2024/04/08 00:54:03;;;;;;;9.23;4.67;;;;;;;;;;1948831;73;21096;-51
2024/04/08 00:56:32;;;;;;;7.42;4.50;;;;;;;;;;1948883;74;21007;-49
2024/04/08 00:59:02;;;;;;;14.38;5.12;;;;;;;;;;1948787;73;21027;-49
2024/04/08 01:01:30;;;;;;;11.05;4.55;;;;;;;;;;1948847;74;21468;-47
2024/04/08 01:03:59;;;;;;;8.90;5.00;;;;;;;;;;1948792;74;21039;-48
2024/04/08 01:06:27;;;;;;;6.60;4.42;;;;;;;;;;1948849;74;21027;-49
2024/04/08 01:08:57;;;;;;;7.50;4.25;;;;;;;;;;1948940;74;21609;-48
2024/04/08 01:11:26;;;;;;;7.25;4.37;;;;;;;;;;1948716;74;21054;-47
2024/04/08 01:13:55;;;;;;;10.15;5.20;;;;;;;;;;1948615;73;21027;-47
2024/04/08 01:16:24;;;;;;;11.10;5.00;;;;;;;;;;1948838;74;21023;-49
2024/04/08 01:18:52;;;;;;;8.30;5.05;;;;;;;;;;1948728;74;21082;-47
2024/04/08 01:21:21;;;;;;;10.35;4.90;;;;;;;;;;1948709;74;21031;-50
2024/04/08 01:23:49;;;;;;;7.83;5.25;;;;;;;;;;1948679;74;21023;-49
2024/04/08 01:26:18;;;;;;;10.90;4.58;;;;;;;;;;1948716;73;21018;-50
2024/04/08 01:28:46;;;;;;;8.53;5.10;;;;;;;;;;1948692;73;21043;-50
2024/04/08 01:31:15;;;;;;;9.18;4.55;;;;;;;;;;1948726;74;21165;-49
2024/04/08 01:33:44;;;;;;;6.12;4.12;;;;;;;;;;1948647;74;21019;-50
2024/04/08 01:36:14;;;;;;;8.63;4.75;;;;;;;;;;1944205;73;21109;-50
2024/04/08 01:38:43;;;;;;;6.85;3.77;;;;;;;;;;1943084;74;21520;-48
2024/04/08 01:41:12;;;;;;;5.87;4.28;;;;;;;;;;1943112;73;21100;-48
2024/04/08 01:43:40;;;;;;;7.67;4.40;;;;;;;;;;1943037;74;20991;-48
2024/04/08 01:46:10;;;;;;;9.03;4.72;;;;;;;;;;1943147;74;21039;-48
2024/04/08 01:48:39;;;;;;;7.00;4.53;;;;;;;;;;1943171;74;21210;-48
2024/04/08 01:51:09;;;;;;;8.03;4.40;;;;;;;;;;1943225;74;21038;-48
2024/04/08 01:53:38;;;;;;;7.22;4.60;;;;;;;;;;1943192;74;21148;-48
2024/04/08 01:56:06;;;;;;;8.33;4.90;;;;;;;;;;1943228;74;21058;-48
2024/04/08 01:58:35;;;;;;;11.68;4.55;;;;;;;;;;1943161;74;21019;-48
2024/04/08 02:01:04;;;;;;;13.48;5.67;;;;;;;;;;1943298;73;21023;-48
2024/04/08 02:03:32;;;;;;;12.10;4.58;;;;;;;;;;1943292;74;21015;-49
2024/04/08 02:06:01;;;;;;;15.68;5.50;;;;;;;;;;1943248;74;20995;-49
2024/04/08 02:08:29;;;;;;;11.05;5.37;;;;;;;;;;1943229;74;21096;-48
2024/04/08 02:10:58;;;;;;;8.53;4.97;;;;;;;;;;1943239;74;21096;-48
2024/04/08 02:13:27;;;;;;;5.60;4.70;;;;;;;;;;1943185;74;21066;-47
2024/04/08 02:15:55;;;;;;;17.57;6.15;;;;;;;;;;1943341;74;21031;-48
2024/04/08 02:18:24;;;;;;;11.45;5.47;;;;;;;;;;1943180;74;21027;-48
2024/04/08 02:20:52;;;;;;;12.45;5.45;;;;;;;;;;1943172;74;21034;-48
2024/04/08 02:23:21;;;;;;;11.80;5.28;;;;;;;;;;1943174;74;21023;-47
2024/04/08 02:25:50;;;;;;;10.15;5.20;;;;;;;;;;1943252;73;21089;-47
2024/04/08 02:28:19;;;;;;;7.97;5.05;;;;;;;;;;1943321;74;21077;-48
2024/04/08 02:30:47;;;;;;;8.45;4.62;;;;;;;;;;1943220;74;21084;-48
2024/04/08 02:33:16;;;;;;;9.20;4.37;;;;;;;;;;1943180;74;21178;-49
2024/04/08 02:35:44;;;;;;;7.53;4.67;;;;;;;;;;1940392;73;21057;-49
2024/04/08 02:38:13;;;;;;;6.12;4.72;;;;;;;;;;1935728;74;21089;-51
2024/04/08 02:40:41;;;;;;;7.70;4.47;;;;;;;;;;1935649;74;21031;-50
2024/04/08 02:43:10;;;;;;;10.35;4.53;;;;;;;;;;1935618;74;21023;-48
2024/04/08 02:45:38;;;;;;;11.43;5.15;;;;;;;;;;1935679;74;21489;-47
2024/04/08 02:48:07;;;;;;;6.17;4.30;;;;;;;;;;1935701;74;21023;-48
2024/04/08 02:50:36;;;;;;;12.95;5.37;;;;;;;;;;1935769;74;21038;-50
2024/04/08 02:53:05;;;;;;;12.18;6.00;;;;;;;;;;1935657;74;21085;-47
2024/04/08 02:55:33;;;;;;;20.00;5.92;;;;;;;;;;1935643;74;21028;-50
2024/04/08 02:58:02;;;;;;;14.50;5.70;;;;;;;;;;1935582;74;21071;-48
2024/04/08 03:00:30;;;;;;;13.65;5.80;;;;;;;;;;1935846;74;21023;-50
2024/04/08 03:02:59;;;;;;;8.70;4.87;;;;;;;;;;1935604;74;21068;-48
2024/04/08 03:05:30;;;;;;;9.50;5.40;;;;;;;;;;1935733;74;21016;-48
2024/04/08 03:07:59;;;;;;;9.35;5.03;;;;;;;;;;1935591;74;21141;-47
2024/04/08 03:10:27;;;;;;;13.30;4.80;;;;;;;;;;1935636;74;21008;-51
2024/04/08 03:12:56;;;;;;;14.95;5.15;;;;;;;;;;1935599;74;21094;-48
2024/04/08 03:15:25;;;;;;;11.33;5.78;;;;;;;;;;1935631;74;21093;-48
2024/04/08 03:17:53;;;;;;;17.92;5.90;;;;;;;;;;1935582;74;21043;-51
2024/04/08 03:20:22;;;;;;;17.25;6.17;;;;;;;;;;1935637;74;21133;-48
2024/04/08 03:22:51;;;;;;;16.42;6.03;;;;;;;;;;1935555;74;21031;-48
2024/04/08 03:25:19;;;;;;;27.98;7.05;;;;;;;;;;1935606;74;21015;-47
2024/04/08 03:27:47;;;;;;;25.43;7.70;;;;;;;;;;1935603;74;21004;-50
2024/04/08 03:30:16;;;;;;;23.73;8.00;;;;;;;;;;1935600;74;21133;-48
2024/04/08 03:32:44;;;;;;;23.10;8.95;;;;;;;;;;1935648;74;21038;-47
2024/04/08 03:35:13;;;;;;;15.50;6.30;;;;;;;;;;1935665;74;21003;-48
2024/04/08 03:37:42;;;;;;;20.92;7.70;;;;;;;;;;1942969;73;21042;-51
2024/04/08 03:40:11;;;;;;;21.73;6.97;;;;;;;;;;1943214;74;21011;-48
2024/04/08 03:42:39;;;;;;;17.15;6.37;;;;;;;;;;1943221;74;21026;-47
2024/04/08 03:45:08;;;;;;;15.23;7.28;;;;;;;;;;1943446;74;20999;-49
2024/04/08 03:47:36;;;;;;;18.87;6.72;;;;;;;;;;1943467;74;21034;-48
2024/04/08 03:50:05;;;;;;;24.60;6.58;;;;;;;;;;1943426;74;21043;-49
2024/04/08 03:52:34;;;;;;;18.98;6.03;;;;;;;;;;1943311;73;21031;-47
2024/04/08 03:55:02;;;;;;;12.85;6.15;;;;;;;;;;1943385;74;21092;-48
2024/04/08 03:57:31;;;;;;;14.43;6.05;;;;;;;;;;1943293;74;21035;-50
2024/04/08 03:59:59;;;;;;;22.52;7.12;;;;;;;;;;1943452;74;21160;-49
2024/04/08 04:02:28;;;;;;;16.67;6.37;;;;;;;;;;1943443;74;20991;-48
2024/04/08 04:04:56;;;;;;;9.68;5.40;;;;;;;;;;1943200;74;21322;-48
2024/04/08 04:07:25;;;;;;;11.88;6.55;;;;;;;;;;1943239;74;21031;-49
2024/04/08 04:09:54;;;;;;;12.13;6.45;;;;;;;;;;1943224;74;21164;-48
2024/04/08 04:12:22;;;;;;;16.75;6.85;;;;;;;;;;1943311;74;21023;-50
2024/04/08 04:14:51;;;;;;;17.23;5.70;;;;;;;;;;1943192;74;21011;-48
2024/04/08 04:17:19;;;;;;;9.50;4.90;;;;;;;;;;1943281;74;21011;-48
2024/04/08 04:19:48;;;;;;;9.08;5.97;;;;;;;;;;1943160;74;21007;-48
2024/04/08 04:22:17;;;;;;;13.65;6.22;;;;;;;;;;1943205;74;21055;-48
2024/04/08 04:24:46;;;;;;;9.73;6.03;;;;;;;;;;1943213;74;21019;-48
2024/04/08 04:27:14;;;;;;;15.30;6.62;;;;;;;;;;1943312;74;21031;-47
2024/04/08 04:29:43;;;;;;;13.22;6.30;;;;;;;;;;1943231;74;21023;-48
2024/04/08 04:32:11;;;;;;;15.63;6.20;;;;;;;;;;1943237;74;21027;-47
2024/04/08 04:34:40;;;;;;;15.43;7.37;;;;;;;;;;1943155;74;21007;-48
2024/04/08 04:37:09;;;;;;;16.75;6.12;;;;;;;;;;1939101;73;21047;-50
2024/04/08 04:39:39;;;;;;;13.45;5.20;;;;;;;;;;1935726;74;21065;-49
2024/04/08 04:42:07;;;;;;;10.13;5.70;;;;;;;;;;1935700;74;21089;-48
2024/04/08 04:44:35;;;;;;;9.30;4.78;;;;;;;;;;1935635;74;21027;-48
2024/04/08 04:47:04;;;;;;;6.10;4.78;;;;;;;;;;1935794;74;21012;-50
2024/04/08 04:49:33;;;;;;;7.22;4.53;;;;;;;;;;1935642;74;21160;-51
2024/04/08 04:52:03;;;;;;;7.15;4.28;;;;;;;;;;1935589;74;21026;-48
2024/04/08 04:54:32;;;;;;;4.72;4.10;;;;;;;;;;1935615;74;21048;-49
2024/04/08 04:57:00;;;;;;;5.25;3.95;;;;;;;;;;1935647;74;21120;-48
2024/04/08 04:59:29;;;;;;;13.72;4.80;;;;;;;;;;1935575;74;21011;-48
2024/04/08 05:01:57;;;;;;;7.05;4.03;;;;;;;;;;1935654;74;21248;-50
2024/04/08 05:04:26;;;;;;;7.45;4.75;;;;;;;;;;1935587;74;21155;-50
2024/04/08 05:06:55;;;;;;;9.05;4.83;;;;;;;;;;1935722;74;21011;-48
2024/04/08 05:09:23;;;;;;;10.98;4.97;;;;;;;;;;1935567;74;21085;-48
2024/04/08 05:11:53;;;;;;;8.88;4.65;;;;;;;;;;1935608;74;21027;-48
2024/04/08 05:14:22;;;;;;;16.82;6.05;;;;;;;;;;1935563;74;20979;-48
2024/04/08 05:16:50;;;;;;;11.50;6.12;;;;;;;;;;1935584;74;21085;-50
2024/04/08 05:19:19;;;;;;;9.68;5.50;;;;;;;;;;1935462;74;21497;-50
2024/04/08 05:21:48;;;;;;;15.98;6.33;;;;;;;;;;1935575;74;21083;-48
2024/04/08 05:24:17;;;;;;;10.03;5.70;;;;;;;;;;1935428;74;21015;-48
2024/04/08 05:26:45;;;;;;;12.53;5.62;;;;;;;;;;1935598;74;21047;-51
2024/04/08 05:29:13;;;;;;;8.35;5.33;;;;;;;;;;1935498;74;21035;-51
2024/04/08 05:31:42;;;;;;;7.50;5.03;;;;;;;;;;1935492;74;21101;-48
2024/04/08 05:34:11;;;;;;;11.03;5.20;;;;;;;;;;1935530;74;21089;-50
2024/04/08 05:36:39;;;;;;;9.80;5.53;;;;;;;;;;1936589;73;21031;-48
2024/04/08 05:39:08;;;;;;;7.28;5.20;;;;;;;;;;1943143;74;20995;-47
2024/04/08 05:41:37;;;;;;;7.83;5.22;;;;;;;;;;1943144;74;21030;-47
2024/04/08 05:44:05;;;;;;;7.62;5.70;;;;;;;;;;1943089;74;21015;-50
2024/04/08 05:46:34;;;;;;;7.78;4.55;;;;;;;;;;1943132;73;21019;-50
2024/04/08 05:49:03;;;;;;;7.47;4.92;;;;;;;;;;1942982;74;21085;-50
2024/04/08 05:51:31;;;;;;;11.73;5.17;;;;;;;;;;1943013;73;21007;-49
2024/04/08 05:54:00;;;;;;;14.75;5.85;;;;;;;;;;1943208;74;21035;-47
2024/04/08 05:56:29;;;;;;;8.95;5.80;;;;;;;;;;1943057;73;21097;-47
2024/04/08 05:58:58;;;;;;;9.93;5.47;;;;;;;;;;1942914;74;21043;-47
2024/04/08 06:01:26;;;;;;;11.57;5.90;;;;;;;;;;1943120;74;21085;-47
2024/04/08 06:03:54;;;;;;;8.35;5.50;;;;;;;;;;1942969;74;21073;-48
2024/04/08 06:06:23;;;;;;;7.70;5.37;;;;;;;;;;1943073;74;21092;-49
2024/04/08 06:08:57;;;;;;;6.85;4.78;;;;;;;;;;1943092;74;21054;-48
2024/04/08 06:11:23;;;;;;;8.95;5.15;;;;;;;;;;1941770;74;21034;-48
2024/04/08 06:13:52;;;;;;;11.22;5.47;;;;;;;;;;1943131;74;21072;-48
2024/04/08 06:16:20;;;;;;;8.78;5.28;;;;;;;;;;1943047;74;21031;-47
2024/04/08 06:18:49;;;;;;;10.70;5.05;;;;;;;;;;1942943;73;21089;-47
2024/04/08 06:21:18;;;;;;;9.88;5.67;;;;;;;;;;1943080;74;21066;-48
2024/04/08 06:23:47;;;;;;;14.63;8.40;;;;;;;;;;1942989;74;21027;-49
2024/04/08 06:26:16;;;;;;;16.82;9.25;;;;;;;;;;1943005;73;21018;-47
2024/04/08 06:28:45;;;;;;;7.97;5.33;;;;;;;;;;1942933;74;21019;-48
2024/04/08 06:31:13;;;;;;;8.25;5.75;;;;;;;;;;1942979;74;21103;-49
2024/04/08 06:33:42;;;;;;;10.50;5.83;;;;;;;;;;1943050;74;21015;-47
2024/04/08 06:36:12;;;;;;;9.70;5.50;;;;;;;;;;1943113;74;21019;-48
2024/04/08 06:38:40;;;;;;;11.38;5.60;;;;;;;;;;1943067;74;21121;-48
2024/04/08 06:41:09;;;;;;;9.55;5.67;;;;;;;;;;1943017;73;21044;-47
2024/04/08 06:43:38;;;;;;;7.05;4.50;;;;;;;;;;1942988;74;21050;-49
2024/04/08 07:06:22;;;;;;;4.50;4.10;;;16.10;77.80;;;;;;1942010;74;28546;-49
2024/04/08 07:08:51;;;;;;;6.95;4.28;;;17.10;77.70;;;;;;1918016;75;21526;-49
2024/04/08 07:11:20;;;;;;;5.40;3.08;;;17.10;77.50;;;;;;1918145;75;21068;-51
2024/04/08 07:13:49;;;;;;;6.75;2.83;;;17.20;76.40;;;;;;1918023;75;21080;-50
2024/04/08 07:16:18;;;;;;;5.05;2.90;;;17.30;71.60;;;;;;1917933;75;21083;-51
2024/04/08 07:18:48;;;;;;;5.67;2.58;;;17.40;70.60;;;;;;1917892;75;20982;-50
2024/04/08 07:21:17;;;;;;;6.78;2.52;;;17.60;69.50;;;;;;1918053;75;21076;-52
2024/04/08 07:23:51;;;;;;;4.08;2.00;;;17.70;68.90;;;;;;1918065;75;21064;-51
2024/04/08 07:26:17;;;;;;;7.90;2.35;;;17.80;69.50;;;;;;1917272;75;21022;-52
2024/04/08 07:28:46;;;;;;;3.12;2.22;;;17.90;68.10;;;;;;1918101;75;21047;-51
2024/04/08 07:31:15;;;;;;;8.93;2.40;;;18.00;67.50;;;;;;1918082;74;21072;-52
2024/04/08 07:33:44;;;;;;;5.42;2.58;;;18.10;67.50;;;;;;1918097;74;20998;-51
2024/04/08 07:36:13;;;;;;;8.15;3.10;;;18.20;66.30;;;;;;1917986;75;20998;-50
2024/04/08 07:38:42;;;;;;;2.90;1.67;;;18.20;65.70;;;;;;1917980;75;21061;-52
2024/04/08 07:41:11;;;;;;;2.70;2.27;;;18.30;63.80;;;;;;1918093;75;21483;-51
2024/04/08 07:43:41;;;;;;;4.42;2.47;;;18.30;64.90;;;;;;1917990;74;20986;-52
2024/04/08 07:46:10;;;;;;;4.37;2.50;;;18.40;65.40;;;;;;1918007;74;21045;-51
2024/04/08 07:48:39;;;;;;;5.03;1.80;;;18.50;65.00;;;;;;1918006;74;21010;-52
2024/04/08 07:51:08;;;;;;;3.30;2.20;;;18.50;63.40;;;;;;1917977;75;21040;-51
2024/04/08 07:53:38;;;;;;;6.78;2.98;;;18.60;64.20;;;;;;1918285;75;21133;-51
2024/04/08 07:56:07;;;;;;;6.58;3.30;;;18.60;64.60;;;;;;1918060;75;21105;-51
2024/04/08 07:58:36;;;;;;;4.62;2.08;;;18.70;64.60;;;;;;1918000;75;21084;-52
2024/04/08 08:01:07;;;;;;;10.43;1.52;;;18.80;63.20;;;;;;1917954;75;21010;-52
2024/04/08 08:03:36;;;;;;;3.72;1.57;;;18.80;61.60;;;;;;1918144;75;20994;-51
2024/04/08 08:06:06;;;;;;;9.23;2.85;;;18.90;60.80;;;;;;1927685;74;21087;-51
2024/04/08 08:08:35;;;;;;;8.78;2.40;;;18.90;61.70;;;;;;1889979;76;21022;-51
2024/04/08 08:11:04;;;;;;;10.68;2.47;;;18.90;62.80;;;;;;1933320;74;20987;-50
2024/04/08 08:13:34;;;;;;;4.83;1.77;;;19.00;62.20;;;;;;1889980;76;21128;-51
2024/04/08 08:16:04;;;;;;;4.08;1.60;;;19.10;62.00;;;;;;1933436;74;21100;-51
2024/04/08 08:18:34;;;;;;;8.88;1.98;;;19.20;60.20;;;;;;1890035;76;21152;-51
2024/04/08 08:21:05;;;;;;;7.97;1.98;;;19.30;60.10;;;;;;1933496;74;21002;-54
2024/04/08 08:23:34;;;;;;;5.75;2.50;;;19.30;60.10;;;;;;1890205;76;21445;-52
2024/04/08 08:26:03;;;;;;;3.70;1.60;;;19.40;60.00;;;;;;1933422;74;21092;-50
2024/04/08 08:28:33;;;;;;;3.77;1.82;;;19.40;59.90;;;;;;1890203;76;21147;-53
2024/04/08 08:31:02;;;;;;;2.62;1.50;;;19.50;60.30;;;;;;1933313;74;21005;-51
2024/04/08 08:33:31;;;;;;;3.33;2.12;;;19.60;59.70;;;;;;1889967;76;21057;-49
2024/04/08 08:36:00;;;;;;;3.77;1.85;;;19.60;60.10;;;;;;1933345;74;20989;-49
2024/04/08 08:38:30;;;;;;;10.35;2.60;;;19.70;60.50;;;;;;1889977;76;21080;-51
2024/04/08 08:41:07;;;;;;;2.50;1.70;;;19.80;59.90;;;;;;1933379;74;20997;-49
2024/04/08 08:43:40;;;;;;;5.20;2.20;;;19.80;59.50;;;;;;1889925;76;21083;-51
2024/04/08 08:46:10;;;;;;;8.48;2.47;;;19.80;60.10;;;;;;1933382;74;21076;-52
2024/04/08 08:48:40;;;;;;;2.37;1.75;;;19.90;60.50;;;;;;1890047;76;21521;-52
2024/04/08 08:51:13;;;;;;;5.12;1.80;;;20.00;58.90;;;;;;1933380;74;21072;-51
2024/04/08 08:53:42;;;;;;;7.47;2.70;;;20.10;59.10;;;;;;1889971;76;21077;-52
2024/04/08 08:56:13;;;;;;;5.25;1.77;;;20.10;58.60;;;;;;1933445;74;21439;-52
2024/04/08 08:58:47;;;;;;;13.40;1.90;;;20.10;59.10;;;;;;1890063;76;21608;-53
2024/04/08 09:01:17;;;;;;;3.87;2.08;;;20.20;57.80;;;;;;1933508;74;20997;-52
2024/04/08 09:03:48;;;;;;;3.95;1.60;;;20.20;58.20;;;;;;1889954;76;21034;-53
2024/04/08 09:06:16;;;;;;;4.42;1.80;;;20.20;57.30;;;;;;1926198;74;21082;-52
2024/04/08 09:08:45;;;;;;;3.62;1.90;;;20.20;56.80;;;;;;1917275;75;21096;-53
2024/04/08 09:11:16;;;;;;;3.08;2.20;;;20.20;57.40;;;;;;1917251;75;21436;-53
2024/04/08 09:13:45;;;;;;;4.45;2.25;;;20.20;58.40;;;;;;1917237;74;21003;-53
2024/04/08 09:16:22;;;;;;;4.40;2.12;;;20.30;58.80;;;;;;1917310;75;20995;-52
2024/04/08 09:18:51;;;;;;;3.47;1.92;;;20.40;58.50;;;;;;1917199;75;21030;-52
2024/04/08 09:21:22;;;;;;;3.15;1.82;;;20.50;58.00;;;;;;1917297;74;21056;-53
2024/04/08 09:23:54;;;;;;;1.52;1.32;;;20.60;57.30;;;;;;1917335;75;21023;-53
2024/04/08 09:26:23;;;;;;;6.03;3.10;;;20.60;58.10;;;;;;1914630;75;21518;-53
2024/04/08 09:28:51;;;;;;;3.05;2.08;;;20.60;57.40;;;;;;1917452;74;20974;-53
2024/04/08 09:31:21;;;;;;;4.92;2.25;;;20.60;57.30;;;;;;1917457;75;21047;-53
2024/04/08 09:33:50;;;;;;;3.42;2.40;;;20.70;57.70;;;;;;1917359;75;21020;-53
2024/04/08 09:36:21;;;;;;;6.20;2.20;;;20.80;58.00;;;;;;1917272;75;21436;-52
2024/04/08 09:38:51;;;;;;;3.27;1.65;;;20.90;57.00;;;;;;1917372;75;21006;-53
2024/04/08 09:41:21;;;;;;;2.40;1.65;;;20.90;56.50;;;;;;1917427;75;20986;-53
2024/04/08 09:43:50;;;;;;;2.47;1.67;;;20.90;56.20;;;;;;1917371;75;21022;-53
2024/04/08 09:46:19;;;;;;;5.55;2.33;;;20.90;56.20;;;;;;1917387;74;21069;-53
2024/04/08 09:48:50;;;;;;;8.08;2.30;;;20.90;56.80;;;;;;1917355;75;20983;-53
2024/04/08 09:51:21;;;;;;;5.58;1.30;;;20.90;56.70;;;;;;1917595;75;21019;-53
2024/04/08 09:53:50;;;;;;;4.40;1.87;;;21.00;56.50;;;;;;1917402;75;21014;-53
2024/04/08 09:56:20;;;;;;;11.97;2.33;;;21.00;55.70;;;;;;1917480;75;21018;-53
2024/04/08 09:58:55;;;;;;;4.17;1.82;;;21.10;55.70;;;;;;1917421;75;21002;-53
2024/04/08 10:01:23;;;;;;;;;;;21.10;55.20;;;;;;1913058;75;21080;-54
2024/04/08 10:03:54;;;;;;;8.18;1.65;;;21.10;55.70;;;;;;1917362;75;20388;-54
2024/04/08 10:06:24;;;;;;;2.60;1.72;;;21.10;55.10;;;;;;1917471;74;21096;-54
2024/04/08 10:08:53;;;;;;;9.83;1.87;;;21.20;55.10;;;;;;1917454;75;21037;-54
2024/04/08 10:11:23;;;;;;;2.83;1.50;;;21.20;55.30;;;;;;1917603;75;21006;-54
2024/04/08 10:13:52;;;;;;;7.08;2.20;;;21.30;54.40;;;;;;1917399;75;20998;-54
2024/04/08 10:16:21;;;;;;;6.83;2.62;;;21.30;54.50;;;;;;1917384;75;20975;-54
2024/04/08 10:18:57;;;;;;;3.55;1.45;;;21.30;54.30;;;;;;1917475;75;21006;-54
2024/04/08 10:21:29;;;;;;;9.85;2.35;;;21.30;53.50;;;;;;1917490;74;21053;-53
2024/04/08 10:23:58;;;;;;;7.12;2.25;;;21.40;54.20;;;;;;1917395;75;21027;-54
2024/04/08 10:26:28;;;;;;;10.23;3.00;;;21.50;53.90;;;;;;1917365;75;21006;-54
2024/04/08 10:28:57;;;;;;;3.95;1.17;;;21.50;53.50;;;;;;1917446;75;21080;-54
2024/04/08 10:31:30;;;;;;;2.50;1.65;;;21.60;53.50;;;;;;1917537;75;21026;-54
2024/04/08 10:33:59;;;;;;;3.77;1.32;;;21.70;52.90;;;;;;1917489;75;20971;-55
2024/04/08 10:36:29;;;;;;;10.53;2.22;;;21.80;52.20;;;;;;1917445;75;21092;-55
2024/04/08 10:38:58;;;;;;;4.15;1.87;;;21.80;53.00;;;;;;1917464;75;21085;-54
2024/04/08 10:41:27;;;;;;;6.15;2.10;;;21.80;52.60;;;;;;1917606;75;21048;-54
2024/04/08 10:43:56;;;;;;;7.00;1.47;;;21.90;52.70;;;;;;1917583;74;21087;-54
2024/04/08 10:46:24;;;;;;;2.00;1.50;;;;;;;;;;1917563;75;21109;-55
2024/04/08 10:48:53;;;;;;;1.60;1.20;;;;;;;;;;1917399;74;20998;-55
2024/04/08 10:51:22;;;;;;;4.33;1.80;;;;;;;;;;1917441;75;20999;-54
2024/04/08 10:53:52;;;;;;;7.22;2.72;;;;;;;;;;1917424;75;21072;-55
2024/04/08 10:56:21;;;;;;;3.87;1.40;;;;;;;;;;1917358;74;21014;-55
2024/04/08 10:58:50;;;;;;;6.42;2.20;;;;;;;;;;1917312;74;21076;-54
2024/04/08 11:01:19;;;;;;;9.95;1.72;;;;;;;;;;1917370;75;20970;-55
2024/04/08 11:03:48;;;;;;;9.45;2.42;;;;;;;;;;1917514;75;21011;-54
2024/04/08 11:06:16;;;;;;;4.40;1.57;;;;;;;;;;1917311;75;20966;-54
2024/04/08 11:08:45;;;;;;;6.58;1.42;;;;;;;;;;1932210;74;21083;-54
2024/04/08 11:11:14;;;;;;;13.00;2.55;;;;;;;;;;1933374;74;21013;-53
2024/04/08 11:13:42;;;;;;;5.70;2.12;;;;;;;;;;1933342;74;21111;-54
2024/04/08 11:16:11;;;;;;;3.75;1.20;;;;;;;;;;1933298;74;21080;-53
2024/04/08 11:18:39;;;;;;;7.62;1.57;;;;;;;;;;1933338;74;20986;-53
2024/04/08 11:21:08;;;;;;;3.85;1.57;;;;;;;;;;1933343;74;20994;-52
2024/04/08 11:23:39;;;;;;;8.55;1.57;;;;;;;;;;1933351;74;20994;-53
2024/04/08 11:26:08;;;;;;;4.97;2.02;;;;;;;;;;1933291;74;20997;-52
2024/04/08 11:28:37;;;;;;;7.60;2.00;;;;;;;;;;1933455;74;21014;-52
2024/04/08 11:31:06;;;;;;;2.12;1.40;;;;;;;;;;1933339;74;21084;-51
2024/04/08 11:33:34;;;;;;;6.28;1.92;;;;;;;;;;1932025;73;21073;-46
2024/04/08 11:36:03;;;;;;;13.48;2.02;;;;;;;;;;1923430;74;21073;-47
2024/04/08 11:38:32;;;;;;;3.87;1.87;;;;;;;;;;1921694;74;21076;-46
2024/04/08 11:41:01;;;;;;;9.23;2.02;;;;;;;;;;1912545;74;21017;-46
2024/04/08 11:43:30;;;;;;;4.60;2.40;;;;;;;;;;1926418;74;21092;-48
2024/04/08 11:46:00;;;;;;;7.10;2.10;;;;;;;;;;1922923;74;20994;-46
2024/04/08 11:48:28;;;;;;;3.10;2.25;;;;;;;;;;1922386;74;21488;-47
2024/04/08 11:50:57;;;;;;;6.25;1.77;;;;;;;;;;1915027;74;21105;-48
2024/04/08 11:53:26;;;;;;;17.52;3.77;;;;;;;;;;1920612;74;20998;-47
2024/04/08 11:55:54;;;;;;;15.93;1.90;;;;;;;;;;1918590;74;21038;-46
2024/04/08 11:58:23;;;;;;;2.90;1.87;;;;;;;;;;1920580;74;21025;-48
2024/04/08 12:00:51;;;;;;;4.92;1.60;;;;;;;;;;1922584;74;21046;-47
2024/04/08 12:03:20;;;;;;;43.83;6.37;;;;;;;;;;1917880;74;21014;-48
2024/04/08 12:05:49;;;;;;;2.58;1.30;;;;;;;;;;1922331;74;21067;-47
2024/04/08 12:08:17;;;;;;;2.30;1.10;;;;;;;;;;1911817;74;21177;-49
2024/04/08 12:10:46;;;;;;;13.93;1.85;;;;;;;;;;1910122;75;21088;-49
2024/04/08 12:13:18;;;;;;;5.20;1.22;;;;;;;;;;1905161;75;21163;-49
2024/04/08 12:15:47;;;;;;;1.40;0.72;;;;;;;;;;1909692;75;21533;-47
2024/04/08 12:18:16;;;;;;;6.00;1.50;;;;;;;;;;1907464;75;21016;-47
2024/04/08 12:20:45;;;;;;;5.35;1.50;;;;;;;;;;1909685;75;21015;-48
2024/04/08 12:23:13;;;;;;;7.95;1.92;;;;;;;;;;1911604;75;21120;-48
2024/04/08 12:25:42;;;;;;;9.38;1.82;;;;;;;;;;1909878;74;21084;-47
2024/04/08 12:28:11;;;;;;;8.48;1.80;;;;;;;;;;1910515;75;21015;-48
2024/04/08 12:30:45;;;;;;;8.65;2.15;;;;;;;;;;1907357;75;21011;-48
2024/04/08 12:33:10;;;;;;;4.67;1.10;;;;;;;;;;1908635;75;21148;-49
2024/04/08 12:35:38;;;;;;;2.45;1.10;;;;;;;;;;1899391;73;21065;-47
2024/04/08 12:38:08;;;;;;;2.85;1.07;;;;;;;;;;1907063;75;21474;-48
2024/04/08 12:40:37;;;;;;;5.40;1.25;;;;;;;;;;1906515;75;21032;-47
2024/04/08 12:43:05;;;;;;;3.47;1.17;;;;;;;;;;1904159;75;21025;-47
2024/04/08 12:45:34;;;;;;;29.70;2.72;;;;;;;;;;1905777;75;21034;-48
2024/04/08 12:48:02;;;;;;;1.57;1.45;;;;;;;;;;1905754;75;21069;-50
2024/04/08 12:50:31;;;;;;;7.90;1.27;;;;;;;;;;1905777;75;21148;-50
2024/04/08 12:53:00;;;;;;;4.20;1.10;;;;;;;;;;1910623;75;21085;-50
2024/04/08 12:55:28;;;;;;;4.10;1.00;;;;;;;;;;1907447;75;21102;-50
2024/04/08 12:57:57;;;;;;;5.45;1.25;;;;;;;;;;1907795;75;21138;-50
2024/04/08 13:00:26;;;;;;;4.22;1.22;;;;;;;;;;1904074;75;21001;-48
2024/04/08 13:02:54;;;;;;;4.72;2.20;;;;;;;;;;1909774;75;21066;-49
2024/04/08 13:05:23;;;;;;;11.45;2.87;;;;;;;;;;1904112;75;21093;-50
2024/04/08 13:07:52;;;;;;;13.35;1.52;;;;;;;;;;1913620;74;21105;-47
2024/04/08 13:10:20;;;;;;;4.62;1.17;;;;;;;;;;1913813;74;21084;-49
2024/04/08 13:12:49;;;;;;;1.30;1.20;;;;;;;;;;1916869;75;21026;-48
2024/04/08 13:15:18;;;;;;;2.50;0.93;;;;;;;;;;1914979;74;21144;-47
2024/04/08 13:17:47;;;;;;;5.53;1.10;;;;;;;;;;1917296;74;21178;-46
2024/04/08 13:20:20;;;;;;;5.72;1.80;;;;;;;;;;1916911;75;21026;-51
2024/04/08 13:22:48;;;;;;;2.72;1.00;;;;;;;;;;1914363;74;21056;-49
2024/04/08 13:25:17;;;;;;;4.42;1.47;;;;;;;;;;1917402;75;21117;-48
2024/04/08 13:27:46;;;;;;;7.12;1.10;;;;;;;;;;1918651;74;21005;-48
2024/04/08 13:30:14;;;;;;;2.83;1.02;;;;;;;;;;1916088;74;21034;-48
2024/04/08 13:32:43;;;;;;;2.08;1.00;;;;;;;;;;1893701;76;21040;-47
2024/04/08 13:35:12;;;;;;;1.22;1.12;;;;;;;;;;1893872;76;20997;-51
2024/04/08 13:37:41;;;;;;;2.87;1.00;;;;;;;;;;1904357;74;21111;-48
2024/04/08 13:40:11;;;;;;;5.58;1.22;;;;;;;;;;1915632;74;21211;-51
2024/04/08 13:43:44;;;;;;;2.98;1.47;;;23.20;39.70;;;;;;1942404;73;26247;-47
2024/04/08 13:46:13;;;;;;;7.70;1.10;;;22.90;41.70;;;;;;1900163;75;21095;-50
2024/04/08 14:40:28;;;;;;;4.97;1.27;;;22.20;38.60;;;;;;1958680;73;26407;-53
2024/04/08 14:42:57;;;;;;;5.17;0.95;;;22.20;39.50;;;;;;1918063;74;21043;-53
2024/04/08 14:45:26;;;;;;;3.12;1.05;;;22.20;39.30;;;;;;1918064;73;21093;-52
2024/04/08 14:47:55;;;;;;;2.95;1.35;;;22.20;39.50;;;;;;1918058;75;21059;-53
2024/04/08 14:50:24;;;;;;;3.00;1.65;;;22.20;39.80;;;;;;1918091;75;21088;-53
2024/04/08 14:52:53;;;;;;;1.12;0.70;;;22.20;39.70;;;;;;1918387;75;21082;-54
2024/04/08 14:55:22;;;;;;;3.98;1.10;;;22.10;39.10;;;;;;1918395;75;21014;-53
2024/04/08 14:57:52;;;;;;;2.17;0.80;;;22.10;39.30;;;;;;1918346;75;21011;-53
2024/04/08 15:00:21;;;;;;;1.90;0.90;;;22.00;38.90;;;;;;1918305;75;21064;-54
2024/04/08 15:02:51;;;;;;;6.40;1.22;;;22.00;39.10;;;;;;1918313;75;21081;-55
2024/04/08 15:05:20;;;;;;;2.15;1.07;;;22.00;38.70;;;;;;1918345;75;21017;-54
2024/04/08 15:07:49;;;;;;;3.98;1.37;;;22.00;39.70;;;;;;1918333;75;21026;-54
2024/04/08 15:10:21;;;;;;;2.95;0.95;;;21.90;39.80;;;;;;1918334;75;21031;-53
2024/04/08 15:12:50;;;;;;;2.42;0.98;;;21.90;39.80;;;;;;1918307;73;21097;-53
2024/04/08 15:15:19;;;;;;;1.05;0.70;;;21.90;39.80;;;;;;1918302;75;21104;-53
2024/04/08 15:17:52;;;;;;;2.22;1.10;;;21.80;39.70;;;;;;1918294;74;21042;-52
2024/04/08 15:20:22;;;;;;;4.20;1.15;;;21.70;40.10;;;;;;1918318;75;20991;-51
2024/04/08 15:22:51;;;;;;;1.67;1.22;;;21.70;40.40;;;;;;1918263;75;21020;-52